Terminal Aerodrome Forecast
Issued by NWS

Home | Current Version | Previous Version | Graphics & Text | Print | Product List | Glossary Off
Versions: 1 2 3 4 5 6 7 8 9 10 11 12 13 14 15 16

000
FTUS43 KABR 282343 CCA
TAFATY
TAF COR
KATY 282343Z 2900/2924 33011KT P6SM VCTS SCT050CB BKN080
      TEMPO 2900/2901 33025G35KT P6SM SHRA BKN050
     FM290100 31009KT P6SM SCT100
     FM291200 31019G28KT P6SM BKN025=

USA.gov is the U.S. government's official web portal to all federal, state and local government web resources and services.